Time;durP1;ratioP1;P1;durP2;ratioP2;P2;SDS_P1;SDS_P2;PMS_P1;PMS_P2;Temp;Humidity;BMP_temperature;BMP_pressure;BME280_temperature;BME280_humidity;BME280_pressure;Samples;Min_cycle;Max_cycle;Signal;HPM_P1;HPM_P2
2022/12/18 00:01:31;;;;;;;9.52;2.72;;;14.10;99.90;;;;;;4973011;28;20031;-79
2022/12/18 00:04:00;;;;;;;10.55;2.78;;;14.10;99.90;;;;;;4956768;28;20113;-79
2022/12/18 00:06:28;;;;;;;9.80;2.65;;;14.10;99.90;;;;;;4956033;28;20022;-79
2022/12/18 00:08:56;;;;;;;10.93;2.90;;;14.00;99.90;;;;;;4973083;28;20452;-78
2022/12/18 00:11:26;;;;;;;15.18;3.30;;;14.00;99.90;;;;;;4955793;28;20114;-78
2022/12/18 00:13:55;;;;;;;11.70;3.10;;;14.00;99.90;;;;;;4955988;28;20142;-80
2022/12/18 00:16:24;;;;;;;12.75;2.83;;;14.00;99.90;;;;;;4940330;28;20169;-79
2022/12/18 00:18:57;;;;;;;11.45;2.95;;;14.00;99.90;;;;;;4973151;28;20050;-78
2022/12/18 00:21:25;;;;;;;7.50;2.45;;;14.00;99.90;;;;;;4956902;28;20325;-80
2022/12/18 00:23:51;;;;;;;19.98;3.60;;;14.00;99.90;;;;;;4973143;28;20122;-78
2022/12/18 00:26:32;;;;;;;11.43;3.42;;;13.90;99.90;;;;;;4973222;28;20482;-79
2022/12/18 00:29:22;;;;;;;9.30;2.40;;;13.90;99.90;;;;;;5002826;28;20034;-78
2022/12/18 00:31:54;;;;;;;17.73;3.13;;;13.90;99.90;;;;;;5012543;28;20022;-78
2022/12/18 00:34:20;;;;;;;13.98;2.92;;;13.90;99.90;;;;;;5012339;28;20482;-79
2022/12/18 00:36:49;;;;;;;12.00;2.73;;;13.90;99.90;;;;;;5012465;28;20123;-80
2022/12/18 00:39:16;;;;;;;9.13;3.05;;;13.90;99.90;;;;;;5012238;28;20038;-80
2022/12/18 00:44:48;;;;;;;11.90;2.97;;;13.90;99.90;;;;;;5011933;28;20056;-80
2022/12/18 00:47:17;;;;;;;14.65;3.28;;;13.90;99.90;;;;;;4979153;28;20418;-80
2022/12/18 00:49:43;;;;;;;10.63;2.63;;;13.90;99.90;;;;;;5011753;28;20037;-80
2022/12/18 00:52:09;;;;;;;11.30;3.37;;;13.80;99.90;;;;;;5011912;28;20022;-80
2022/12/18 00:54:36;;;;;;;;;;;13.80;99.90;;;;;;5011990;28;20038;-80
2022/12/18 00:57:02;;;;;;;11.30;3.30;;;13.80;99.90;;;;;;4993625;28;19909;-81
2022/12/18 00:59:30;;;;;;;10.60;2.97;;;13.70;99.90;;;;;;4993566;28;20033;-81
2022/12/18 01:01:56;;;;;;;11.95;2.78;;;13.70;99.90;;;;;;4994131;28;20037;-81
2022/12/18 01:04:23;;;;;;;12.77;3.78;;;13.70;99.90;;;;;;5012170;28;20018;-81
2022/12/18 01:06:51;;;;;;;16.70;2.83;;;13.60;99.90;;;;;;5011129;28;20108;-82
2022/12/18 01:09:18;;;;;;;12.00;2.72;;;13.60;99.90;;;;;;5010184;28;20024;-81
2022/12/18 01:11:44;;;;;;;16.48;3.20;;;13.60;99.90;;;;;;5010411;28;20034;-81
2022/12/18 01:14:10;;;;;;;12.53;2.77;;;13.60;99.90;;;;;;5010367;28;20025;-80
2022/12/18 01:16:40;;;;;;;8.52;2.28;;;13.60;99.90;;;;;;4992632;28;20033;-81
2022/12/18 01:19:06;;;;;;;14.95;2.90;;;13.60;99.90;;;;;;5010536;28;20036;-82
2022/12/18 01:21:34;;;;;;;13.20;3.30;;;13.50;99.90;;;;;;5010966;28;20127;-81
2022/12/18 01:24:00;;;;;;;10.55;2.40;;;13.50;99.90;;;;;;5011934;28;20029;-80
2022/12/18 01:26:29;;;;;;;12.37;2.83;;;13.50;99.90;;;;;;5011947;28;20377;-81
2022/12/18 01:28:57;;;;;;;11.20;3.00;;;13.50;99.90;;;;;;4994423;28;20022;-81
2022/12/18 01:31:28;;;;;;;12.25;2.65;;;13.50;99.90;;;;;;5011846;28;20025;-80
2022/12/18 01:33:56;;;;;;;8.90;2.33;;;13.40;99.90;;;;;;5012019;28;20022;-81
2022/12/18 01:36:28;;;;;;;12.25;2.42;;;13.40;99.90;;;;;;5011833;28;20034;-81
2022/12/18 01:38:54;;;;;;;12.55;2.67;;;13.40;99.90;;;;;;5011514;28;20061;-81
2022/12/18 01:41:26;;;;;;;13.68;2.80;;;13.40;99.90;;;;;;5011284;28;20033;-81
2022/12/18 01:43:59;;;;;;;9.93;2.53;;;13.40;99.90;;;;;;5011875;28;20112;-81
2022/12/18 01:46:27;;;;;;;8.45;2.58;;;13.40;99.90;;;;;;4994353;28;20025;-81
2022/12/18 01:49:00;;;;;;;8.27;2.35;;;13.50;99.90;;;;;;5011782;28;20021;-81
2022/12/18 01:51:28;;;;;;;6.95;2.28;;;13.50;99.90;;;;;;5011669;28;20055;-81
2022/12/18 01:53:54;;;;;;;7.90;2.30;;;13.50;99.90;;;;;;5011294;28;20125;-81
2022/12/18 01:56:22;;;;;;;10.87;2.33;;;13.50;99.90;;;;;;5011502;28;20061;-80
2022/12/18 01:59:02;;;;;;;9.70;2.65;;;13.50;99.90;;;;;;4977579;28;20355;-81
2022/12/18 02:01:30;;;;;;;12.73;2.88;;;13.50;99.90;;;;;;4977617;28;20056;-82
2022/12/18 02:04:13;;;;;;;6.03;2.05;;;13.50;99.90;;;;;;5011734;28;20069;-82
2022/12/18 02:06:42;;;;;;;8.75;2.40;;;13.50;99.90;;;;;;5011553;28;20022;-80
2022/12/18 02:09:15;;;;;;;13.38;2.70;;;13.40;99.90;;;;;;5015080;28;20065;-81
2022/12/18 02:12:30;;;;;;;10.68;2.20;;;13.40;99.90;;;;;;5015510;28;20105;-81
2022/12/18 02:15:19;;;;;;;10.05;2.10;;;13.40;99.90;;;;;;4916644;29;20039;-82
2022/12/18 02:17:58;;;;;;;8.85;2.05;;;13.30;99.90;;;;;;4917164;29;20036;-82
2022/12/18 02:21:08;;;;;;;9.45;2.08;;;13.30;99.90;;;;;;4917187;29;20036;-81
2022/12/18 02:23:53;;;;;;;11.82;2.53;;;13.30;99.90;;;;;;4897447;29;20103;-81
2022/12/18 02:26:29;;;;;;;10.48;2.20;;;13.30;99.90;;;;;;4916879;29;20071;-82
2022/12/18 02:29:16;;;;;;;13.50;2.33;;;13.30;99.90;;;;;;4917110;29;20229;-82
2022/12/18 02:32:04;;;;;;;8.23;2.20;;;13.30;99.90;;;;;;4917023;29;20024;-82
2022/12/18 02:34:34;;;;;;;10.30;2.20;;;13.30;99.90;;;;;;4916728;29;20205;-80
2022/12/18 02:37:04;;;;;;;12.38;2.50;;;13.30;99.90;;;;;;4916397;29;20551;-83
2022/12/18 02:39:33;;;;;;;13.27;2.83;;;13.30;99.90;;;;;;4916652;29;20388;-82
2022/12/18 02:42:07;;;;;;;8.27;2.40;;;13.30;99.90;;;;;;4916309;29;20044;-83
2022/12/18 02:44:42;;;;;;;9.85;2.33;;;13.20;99.90;;;;;;4901506;29;20060;-81
2022/12/18 02:47:12;;;;;;;7.07;2.80;;;13.20;99.90;;;;;;4916257;29;20025;-81
2022/12/18 02:49:44;;;;;;;11.85;2.53;;;13.20;99.90;;;;;;5003106;28;20037;-82
2022/12/18 02:52:50;;;;;;;15.32;2.70;;;13.20;99.90;;;;;;5013715;28;20470;-82
2022/12/18 02:55:35;;;;;;;;;;;13.20;99.90;;;;;;5015038;28;20030;-81
2022/12/18 02:58:45;;;;;;;7.45;2.25;;;13.10;99.90;;;;;;5014476;28;20281;-81
2022/12/18 03:04:24;;;;;;;11.40;2.92;;;13.10;99.90;;;;;;5015150;28;20465;-82
2022/12/18 03:06:54;;;;;;;12.63;2.47;;;13.10;99.90;;;;;;5015047;28;20076;-82
2022/12/18 03:09:37;;;;;;;12.88;3.05;;;13.10;99.90;;;;;;5014617;28;20025;-81
2022/12/18 03:12:37;;;;;;;10.32;2.45;;;13.10;99.90;;;;;;5014698;28;20033;-82
2022/12/18 03:15:20;;;;;;;9.93;2.55;;;13.10;99.90;;;;;;5014608;28;20135;-81
2022/12/18 03:17:54;;;;;;;10.77;2.63;;;13.10;99.90;;;;;;5014715;28;20105;-81
2022/12/18 03:20:27;;;;;;;8.02;2.45;;;13.20;99.90;;;;;;5013131;28;20121;-81
2022/12/18 03:23:02;;;;;;;16.85;2.33;;;13.10;99.90;;;;;;5014156;28;20022;-81
2022/12/18 03:25:30;;;;;;;6.65;2.00;;;13.20;99.90;;;;;;5014511;28;20497;-81
2022/12/18 03:28:01;;;;;;;10.05;2.55;;;13.20;99.90;;;;;;5014041;28;20025;-81
2022/12/18 03:30:29;;;;;;;9.98;2.47;;;13.20;99.90;;;;;;5014611;28;20034;-82
2022/12/18 03:33:19;;;;;;;10.48;2.55;;;13.20;99.90;;;;;;4996247;28;20091;-82
2022/12/18 03:35:46;;;;;;;11.02;2.38;;;13.20;99.90;;;;;;5014322;28;20018;-82
2022/12/18 03:38:14;;;;;;;10.63;2.75;;;13.10;99.90;;;;;;5013730;28;20034;-81
2022/12/18 03:40:50;;;;;;;12.32;2.63;;;13.10;99.90;;;;;;5014307;28;20037;-82
2022/12/18 03:43:31;;;;;;;12.27;2.47;;;13.00;99.90;;;;;;5014167;28;20025;-82
2022/12/18 03:46:09;;;;;;;12.48;2.78;;;13.00;99.90;;;;;;4996157;28;20380;-81
2022/12/18 03:48:49;;;;;;;9.25;3.00;;;12.90;99.90;;;;;;5013785;28;20022;-81
2022/12/18 03:51:25;;;;;;;9.93;2.65;;;12.90;99.90;;;;;;5014055;28;20438;-81
2022/12/18 03:54:04;;;;;;;10.77;2.55;;;12.90;99.90;;;;;;4992636;28;20168;-80
2022/12/18 03:56:35;;;;;;;12.88;3.05;;;12.90;99.90;;;;;;4993974;28;20049;-81
2022/12/18 03:59:05;;;;;;;13.05;2.75;;;12.90;99.90;;;;;;4993874;28;20102;-81
2022/12/18 04:01:40;;;;;;;10.57;2.67;;;12.90;99.90;;;;;;4992495;28;20061;-82
2022/12/18 04:04:09;;;;;;;10.93;2.50;;;12.90;99.90;;;;;;4993808;28;20109;-82
2022/12/18 04:06:42;;;;;;;11.50;2.30;;;12.80;99.90;;;;;;4994287;28;20026;-81
2022/12/18 04:09:10;;;;;;;10.65;2.50;;;12.80;99.90;;;;;;4994178;28;20038;-81
2022/12/18 04:11:37;;;;;;;12.00;2.70;;;12.80;99.90;;;;;;4993734;28;20022;-82
2022/12/18 04:14:05;;;;;;;11.82;2.42;;;12.80;99.90;;;;;;4993680;28;20034;-82
2022/12/18 04:16:31;;;;;;;10.98;2.80;;;12.80;99.90;;;;;;4993854;28;20022;-81
2022/12/18 04:19:05;;;;;;;9.53;2.77;;;12.80;99.90;;;;;;4993465;28;20045;-82
2022/12/18 04:21:31;;;;;;;13.38;2.25;;;12.80;99.90;;;;;;4993757;28;20450;-80
2022/12/18 04:23:57;;;;;;;6.83;2.90;;;12.80;99.90;;;;;;4993880;28;20362;-83
2022/12/18 04:26:24;;;;;;;13.50;3.05;;;12.70;99.90;;;;;;4993895;28;20423;-81
2022/12/18 04:28:50;;;;;;;6.73;2.10;;;12.70;99.90;;;;;;4992169;28;20095;-81
2022/12/18 04:31:16;;;;;;;8.40;2.25;;;12.70;99.90;;;;;;4993379;28;20325;-82
2022/12/18 04:33:44;;;;;;;9.10;2.25;;;12.60;99.90;;;;;;4993087;28;20096;-84
2022/12/18 04:36:12;;;;;;;9.13;2.33;;;12.60;99.90;;;;;;4991996;28;20030;-81
2022/12/18 04:38:38;;;;;;;13.20;2.65;;;12.60;99.90;;;;;;4993312;28;20042;-81
2022/12/18 04:41:05;;;;;;;9.80;2.13;;;12.60;99.90;;;;;;4993406;28;20026;-81
2022/12/18 04:43:32;;;;;;;;;;;12.60;99.90;;;;;;4992119;28;20328;-81
2022/12/18 04:46:06;;;;;;;7.82;2.00;;;12.60;99.90;;;;;;4993226;28;19945;-83
2022/12/18 04:48:33;;;;;;;8.88;2.50;;;12.60;99.90;;;;;;4991691;28;20150;-82
2022/12/18 04:50:59;;;;;;;9.75;2.58;;;12.60;99.90;;;;;;4993279;28;20053;-82
2022/12/18 04:53:25;;;;;;;11.90;2.00;;;12.70;99.90;;;;;;4991546;28;20076;-81
2022/12/18 04:56:03;;;;;;;13.15;2.08;;;12.70;99.90;;;;;;4993113;28;20057;-81
2022/12/18 04:58:29;;;;;;;5.35;1.67;;;12.70;99.90;;;;;;4993276;28;20041;-82
2022/12/18 05:01:05;;;;;;;10.40;2.10;;;12.70;99.90;;;;;;4992783;28;20134;-82
2022/12/18 05:03:31;;;;;;;10.90;2.00;;;12.70;99.90;;;;;;4993009;28;20112;-80
2022/12/18 05:05:57;;;;;;;12.05;1.85;;;12.80;99.90;;;;;;4991755;28;20065;-82
2022/12/18 05:08:25;;;;;;;9.23;1.83;;;12.80;99.90;;;;;;4991946;28;20109;-82
2022/12/18 05:11:03;;;;;;;10.05;1.85;;;12.90;99.90;;;;;;4992970;28;20027;-81
2022/12/18 05:13:32;;;;;;;8.60;1.90;;;13.00;99.90;;;;;;4974980;28;20034;-82
2022/12/18 05:15:58;;;;;;;8.07;1.95;;;12.90;99.90;;;;;;4975259;28;20471;-82
2022/12/18 05:18:25;;;;;;;11.45;2.10;;;12.90;99.90;;;;;;4992725;28;20034;-82
2022/12/18 05:20:54;;;;;;;7.65;2.67;;;12.90;99.90;;;;;;4992504;28;20418;-82
2022/12/18 05:23:23;;;;;;;11.77;2.75;;;12.90;99.90;;;;;;4974993;28;20049;-82
2022/12/18 05:25:52;;;;;;;16.75;2.40;;;12.90;99.90;;;;;;4974944;28;20092;-80
2022/12/18 05:28:20;;;;;;;10.60;2.40;;;12.80;99.90;;;;;;4991361;28;20139;-82
2022/12/18 05:30:51;;;;;;;7.40;1.80;;;12.80;99.90;;;;;;4992686;28;20062;-82
2022/12/18 05:33:18;;;;;;;6.25;1.77;;;12.80;99.90;;;;;;4974836;28;20081;-82
2022/12/18 05:35:49;;;;;;;8.57;1.98;;;12.80;99.90;;;;;;4992685;28;20426;-83
2022/12/18 05:38:16;;;;;;;12.00;2.00;;;12.80;99.90;;;;;;4992561;28;20355;-82
2022/12/18 05:40:43;;;;;;;5.90;1.80;;;12.80;99.90;;;;;;4992612;28;20049;-82
2022/12/18 05:43:09;;;;;;;5.97;1.90;;;12.80;99.90;;;;;;4991612;28;20188;-83
2022/12/18 05:45:39;;;;;;;9.65;2.38;;;12.90;99.90;;;;;;4992283;28;20030;-83
2022/12/18 05:48:11;;;;;;;12.43;2.00;;;12.90;99.90;;;;;;4992110;28;20379;-83
2022/12/18 05:50:43;;;;;;;11.93;2.13;;;12.90;99.90;;;;;;4992286;28;20126;-83
2022/12/18 05:53:37;;;;;;;10.23;1.83;;;12.90;99.90;;;;;;4992148;28;20058;-83
2022/12/18 05:56:08;;;;;;;8.52;1.92;;;12.90;99.90;;;;;;4992257;28;20030;-81
2022/12/18 05:58:35;;;;;;;6.85;2.08;;;12.90;99.90;;;;;;4992552;28;20054;-80
2022/12/18 06:01:42;;;;;;;7.70;1.90;;;12.90;99.90;;;;;;4992339;28;20027;-80
2022/12/18 06:04:10;;;;;;;8.00;2.10;;;12.80;99.90;;;;;;4991939;28;20039;-81
2022/12/18 06:06:38;;;;;;;9.48;2.42;;;12.70;99.90;;;;;;4974408;28;20116;-82
2022/12/18 06:09:09;;;;;;;8.00;2.42;;;12.70;99.90;;;;;;4991663;28;20470;-82
2022/12/18 06:11:39;;;;;;;9.85;2.45;;;12.70;99.90;;;;;;4992361;28;20034;-81
2022/12/18 06:14:06;;;;;;;11.23;2.25;;;12.70;99.90;;;;;;4991991;28;20451;-81
2022/12/18 06:16:33;;;;;;;9.85;2.25;;;12.70;99.90;;;;;;4991908;28;20071;-81
2022/12/18 06:19:00;;;;;;;8.43;2.00;;;12.70;99.90;;;;;;4991957;28;20085;-82
2022/12/18 06:21:27;;;;;;;9.20;2.47;;;12.70;99.90;;;;;;4974649;28;20126;-82
2022/12/18 06:23:53;;;;;;;8.88;1.98;;;12.70;99.90;;;;;;4958428;28;20121;-81
2022/12/18 06:26:31;;;;;;;12.15;1.92;;;12.70;99.90;;;;;;4991876;28;20034;-83
2022/12/18 06:28:57;;;;;;;10.85;2.20;;;12.80;99.90;;;;;;4991974;28;20097;-82
2022/12/18 06:31:24;;;;;;;6.20;1.93;;;12.80;99.90;;;;;;4992148;28;20040;-81
2022/12/18 06:33:51;;;;;;;10.07;2.05;;;12.80;99.90;;;;;;4991945;28;20446;-82
2022/12/18 06:36:48;;;;;;;10.52;1.98;;;12.80;99.90;;;;;;4998640;23;20065;-83
2022/12/18 06:39:16;;;;;;;8.07;1.80;;;13.00;99.90;;;;;;4991895;28;20053;-82
2022/12/18 06:41:45;;;;;;;16.98;2.25;;;13.30;99.90;;;;;;4991811;28;20026;-82
2022/12/18 06:44:12;;;;;;;8.82;2.03;;;13.70;99.90;;;;;;4973723;28;20033;-83
2022/12/18 06:46:38;;;;;;;6.05;1.50;;;13.90;99.90;;;;;;4991844;28;20027;-81
2022/12/18 06:49:08;;;;;;;11.70;2.40;;;14.20;99.90;;;;;;4991927;28;20059;-83
2022/12/18 06:51:35;;;;;;;6.93;1.70;;;14.20;99.90;;;;;;4991524;28;20479;-83
2022/12/18 06:54:01;;;;;;;7.18;1.50;;;14.30;99.90;;;;;;4993561;28;20049;-83
2022/12/18 06:56:32;;;;;;;11.52;1.90;;;14.20;99.90;;;;;;4995121;28;20030;-83
2022/12/18 06:59:01;;;;;;;9.38;2.10;;;14.10;99.90;;;;;;4994980;28;20034;-83
2022/12/18 07:01:27;;;;;;;8.90;1.88;;;14.10;99.90;;;;;;4994611;28;20022;-82
2022/12/18 07:03:54;;;;;;;;;;;13.90;99.90;;;;;;4994925;28;20049;-82
2022/12/18 07:06:23;;;;;;;7.53;1.70;;;13.90;99.90;;;;;;4995210;28;19906;-82
2022/12/18 07:08:52;;;;;;;6.72;1.50;;;13.90;99.90;;;;;;4994875;28;20018;-80
2022/12/18 07:11:20;;;;;;;5.93;1.88;;;14.00;99.90;;;;;;4994978;28;20129;-82
2022/12/18 07:13:47;;;;;;;8.25;1.55;;;14.50;99.90;;;;;;4995089;28;20190;-82
2022/12/18 07:16:19;;;;;;;7.72;1.60;;;15.00;99.90;;;;;;4994618;28;20053;-83
2022/12/18 07:18:46;;;;;;;6.90;1.33;;;15.00;99.90;;;;;;4961372;28;20407;-81
2022/12/18 07:21:19;;;;;;;10.57;1.80;;;15.30;99.90;;;;;;4995192;28;20105;-82
2022/12/18 07:23:47;;;;;;;9.68;2.03;;;16.10;99.90;;;;;;4995252;28;20022;-81
2022/12/18 07:26:15;;;;;;;12.57;3.25;;;16.70;99.90;;;;;;4994943;28;20031;-82
2022/12/18 07:29:03;;;;;;;9.85;1.50;;;17.30;99.90;;;;;;4995163;28;20054;-83
2022/12/18 07:31:31;;;;;;;9.63;2.17;;;17.80;99.90;;;;;;4994527;28;20038;-82
2022/12/18 07:33:57;;;;;;;9.23;2.00;;;18.50;99.90;;;;;;4994719;28;20022;-82
2022/12/18 07:36:26;;;;;;;8.85;3.15;;;18.80;99.90;;;;;;4994553;28;20451;-82
2022/12/18 07:38:53;;;;;;;8.93;1.95;;;18.80;99.90;;;;;;4993633;28;20459;-82
2022/12/18 07:41:25;;;;;;;8.20;1.80;;;18.90;99.90;;;;;;4995041;28;20044;-82
2022/12/18 07:43:51;;;;;;;12.43;4.68;;;18.30;99.90;;;;;;4994732;28;20423;-83
2022/12/18 07:46:18;;;;;;;7.95;2.08;;;18.10;99.90;;;;;;4994703;28;20076;-82
2022/12/18 07:48:45;;;;;;;;;;;18.00;99.90;;;;;;4995068;28;20030;-82
2022/12/18 07:51:12;;;;;;;7.88;1.92;;;17.50;99.90;;;;;;4977386;28;19917;-83
2022/12/18 07:54:01;;;;;;;7.75;2.25;;;17.40;99.90;;;;;;4994715;28;20023;-82
2022/12/18 07:56:28;;;;;;;9.85;2.10;;;17.40;99.90;;;;;;4994204;28;20038;-81
2022/12/18 07:58:54;;;;;;;10.73;2.55;;;17.00;99.90;;;;;;4994061;28;20034;-82
2022/12/18 08:01:20;;;;;;;9.15;1.70;;;17.10;99.90;;;;;;4994420;28;20037;-81
2022/12/18 08:03:46;;;;;;;9.15;2.03;;;17.10;99.90;;;;;;4994441;28;20042;-81
2022/12/18 08:06:13;;;;;;;10.35;2.30;;;17.10;99.90;;;;;;4993315;28;20030;-80
2022/12/18 08:08:55;;;;;;;8.30;1.70;;;17.10;99.90;;;;;;4994603;28;20479;-82
2022/12/18 08:11:30;;;;;;;16.60;2.20;;;17.10;99.90;;;;;;4994445;28;20061;-82
2022/12/18 08:13:57;;;;;;;8.00;1.42;;;17.40;99.90;;;;;;4994155;28;20030;-82
2022/12/18 08:16:24;;;;;;;6.60;1.55;;;17.20;99.90;;;;;;4993942;28;20390;-77
2022/12/18 08:19:01;;;;;;;9.30;2.45;;;17.20;99.90;;;;;;4993916;28;20445;-77
2022/12/18 08:21:31;;;;;;;8.63;1.55;;;17.40;99.90;;;;;;4994313;28;20383;-77
2022/12/18 08:23:59;;;;;;;7.25;1.58;;;17.40;99.90;;;;;;4993792;28;20026;-77
2022/12/18 08:26:27;;;;;;;8.40;1.75;;;17.40;99.90;;;;;;4994168;28;20081;-76
2022/12/18 08:28:55;;;;;;;13.38;2.38;;;17.50;99.90;;;;;;4993645;28;20026;-77
2022/12/18 08:31:22;;;;;;;10.98;3.38;;;17.60;99.90;;;;;;4993570;28;20026;-77
2022/12/18 08:33:52;;;;;;;9.73;4.53;;;17.60;99.90;;;;;;4994160;28;20054;-78
2022/12/18 08:36:19;;;;;;;20.42;6.63;;;17.60;99.90;;;;;;4993573;28;20054;-77
2022/12/18 08:38:46;;;;;;;10.30;2.60;;;17.50;99.90;;;;;;4993700;28;20062;-77
2022/12/18 08:41:15;;;;;;;12.05;3.65;;;17.40;99.90;;;;;;4993695;28;20488;-77
2022/12/18 08:46:43;;;;;;;9.80;1.80;;;17.30;99.90;;;;;;4971451;28;20037;-76
2022/12/18 08:49:11;;;;;;;8.45;1.92;;;17.20;99.90;;;;;;4971430;28;20050;-76
2022/12/18 08:51:43;;;;;;;5.75;1.38;;;17.00;99.90;;;;;;4971624;28;20035;-75
2022/12/18 08:54:13;;;;;;;12.80;2.38;;;17.00;99.90;;;;;;4972286;28;20483;-77
2022/12/18 08:56:39;;;;;;;7.68;2.10;;;16.90;99.90;;;;;;4972002;28;20113;-77
2022/12/18 08:59:06;;;;;;;8.40;1.70;;;16.90;99.90;;;;;;4971568;28;20447;-72
2022/12/18 09:01:33;;;;;;;7.47;1.45;;;17.00;99.90;;;;;;4947357;29;20186;-75
2022/12/18 09:04:00;;;;;;;6.57;1.17;;;17.00;99.90;;;;;;4950477;29;20085;-78
2022/12/18 09:06:28;;;;;;;9.80;2.78;;;17.00;99.90;;;;;;4951053;28;20031;-76
2022/12/18 09:08:55;;;;;;;9.30;2.53;;;17.00;99.90;;;;;;4971641;28;20034;-78
2022/12/18 09:11:25;;;;;;;8.07;1.83;;;17.20;99.90;;;;;;4971488;28;20138;-79
2022/12/18 09:13:52;;;;;;;5.65;1.50;;;17.20;99.90;;;;;;4971645;28;20042;-76
2022/12/18 09:16:19;;;;;;;5.90;1.30;;;17.40;99.90;;;;;;4971399;28;20519;-79
2022/12/18 09:18:46;;;;;;;6.50;1.67;;;17.40;99.90;;;;;;4972413;28;20062;-78
2022/12/18 09:21:20;;;;;;;14.02;1.90;;;17.30;99.90;;;;;;4983368;28;20037;-78
2022/12/18 09:23:50;;;;;;;8.13;1.55;;;17.30;99.90;;;;;;4993945;28;20037;-80
2022/12/18 09:26:17;;;;;;;6.05;1.20;;;17.20;99.90;;;;;;4994128;28;20464;-79
2022/12/18 09:28:45;;;;;;;8.05;1.60;;;17.10;99.90;;;;;;4993286;28;20031;-79
2022/12/18 09:31:12;;;;;;;10.60;1.67;;;17.10;99.90;;;;;;4993175;28;20360;-82
2022/12/18 09:33:38;;;;;;;7.90;2.00;;;17.10;99.90;;;;;;4993499;28;20030;-75
2022/12/18 09:36:06;;;;;;;6.30;1.38;;;17.30;99.90;;;;;;4993346;28;20085;-76
2022/12/18 09:38:35;;;;;;;7.88;1.65;;;17.40;99.90;;;;;;4993030;28;20455;-73
2022/12/18 09:41:25;;;;;;;4.75;1.35;;;17.40;99.90;;;;;;4975148;28;20042;-76
2022/12/18 09:43:57;;;;;;;6.95;1.85;;;17.50;99.90;;;;;;4992950;28;20027;-74
2022/12/18 09:46:46;;;;;;;6.28;1.40;;;17.40;99.90;;;;;;4993351;28;20033;-74
2022/12/18 09:49:18;;;;;;;6.30;1.60;;;17.20;99.90;;;;;;4992395;28;20048;-73
2022/12/18 09:52:05;;;;;;;7.00;2.00;;;17.10;99.90;;;;;;4992700;28;20023;-74
2022/12/18 09:54:46;;;;;;;7.70;1.70;;;17.00;99.90;;;;;;4992938;28;20128;-74
2022/12/18 09:57:23;;;;;;;6.85;1.70;;;17.10;99.90;;;;;;4992644;28;20045;-74
2022/12/18 10:00:25;;;;;;;4.60;1.80;;;17.10;99.90;;;;;;4975016;28;20352;-75
2022/12/18 10:03:08;;;;;;;10.73;1.75;;;17.10;99.90;;;;;;4932687;29;20032;-74
2022/12/18 10:06:01;;;;;;;10.98;2.97;;;17.10;99.90;;;;;;4916948;29;20131;-74
2022/12/18 10:08:49;;;;;;;8.88;1.60;;;17.20;99.90;;;;;;4932938;29;20035;-74
2022/12/18 10:11:33;;;;;;;10.75;2.33;;;17.60;99.90;;;;;;4933385;29;20047;-74
2022/12/18 10:14:36;;;;;;;7.28;1.90;;;17.90;99.90;;;;;;4933166;29;20041;-73
2022/12/18 10:17:33;;;;;;;12.30;1.95;;;18.00;99.90;;;;;;4875949;29;20184;-73
2022/12/18 10:20:24;;;;;;;6.85;1.92;;;17.90;99.90;;;;;;4876338;29;20093;-72
2022/12/18 10:23:10;;;;;;;9.30;3.33;;;17.90;99.90;;;;;;4876425;29;20041;-73
2022/12/18 10:25:58;;;;;;;8.38;2.47;;;18.00;99.90;;;;;;4876363;29;20331;-73
2022/12/18 10:28:47;;;;;;;7.63;1.73;;;18.10;99.90;;;;;;4877004;29;20049;-74
2022/12/18 10:31:24;;;;;;;7.72;1.70;;;18.10;99.90;;;;;;4879713;29;20037;-75
2022/12/18 10:33:53;;;;;;;6.88;2.20;;;18.40;99.90;;;;;;4864067;29;20045;-74
2022/12/18 10:36:23;;;;;;;4.28;1.45;;;18.50;99.90;;;;;;4895762;29;20144;-73
2022/12/18 10:38:49;;;;;;;8.10;1.98;;;18.60;99.90;;;;;;4936016;29;20047;-74
2022/12/18 10:41:18;;;;;;;8.43;2.00;;;18.50;99.90;;;;;;4920818;29;20048;-73
2022/12/18 10:43:45;;;;;;;8.90;1.60;;;18.50;99.90;;;;;;4936056;29;20131;-74
2022/12/18 10:46:20;;;;;;;6.07;1.85;;;18.60;99.90;;;;;;4936080;29;20050;-73
2022/12/18 10:48:57;;;;;;;7.28;1.92;;;18.70;99.90;;;;;;4936443;29;20032;-77
2022/12/18 10:51:25;;;;;;;;;;;18.90;99.90;;;;;;4936733;29;20539;-73
2022/12/18 10:54:21;;;;;;;9.70;2.38;;;18.70;99.90;;;;;;4976038;28;19909;-73
2022/12/18 10:56:47;;;;;;;11.75;2.13;;;18.80;99.90;;;;;;4990529;28;20031;-75
2022/12/18 10:59:15;;;;;;;5.03;1.60;;;18.90;99.90;;;;;;4995774;28;20042;-72
2022/12/18 11:01:56;;;;;;;9.55;2.00;;;19.10;99.90;;;;;;4978186;28;20058;-74
2022/12/18 11:04:25;;;;;;;4.35;1.52;;;19.10;99.90;;;;;;4996200;28;20375;-75
2022/12/18 11:07:11;;;;;;;4.65;1.33;;;19.00;99.90;;;;;;4977882;28;20470;-75
2022/12/18 11:09:39;;;;;;;8.43;1.90;;;19.10;99.90;;;;;;4995610;28;20026;-74
2022/12/18 11:12:19;;;;;;;9.23;2.00;;;19.20;99.90;;;;;;4995584;28;20088;-74
2022/12/18 11:14:49;;;;;;;7.82;1.83;;;19.70;99.90;;;;;;4995905;28;20026;-73
2022/12/18 11:17:34;;;;;;;6.57;1.95;;;19.40;99.90;;;;;;4977767;28;20390;-73
2022/12/18 11:20:07;;;;;;;6.55;1.80;;;19.40;99.90;;;;;;4995755;28;20038;-74
2022/12/18 11:22:38;;;;;;;11.45;1.92;;;19.20;99.90;;;;;;4995932;28;20034;-70
2022/12/18 11:25:15;;;;;;;6.20;2.10;;;19.10;99.90;;;;;;4995130;28;20112;-73
2022/12/18 11:27:52;;;;;;;8.23;1.98;;;18.60;99.90;;;;;;4995057;28;20383;-73
2022/12/18 11:30:34;;;;;;;;;;;18.60;99.90;;;;;;4995904;28;20029;-74
2022/12/18 11:33:26;;;;;;;5.28;1.80;;;18.60;99.90;;;;;;4995227;28;20442;-74
2022/12/18 11:35:55;;;;;;;7.28;2.17;;;18.50;99.90;;;;;;4992340;28;20487;-73
2022/12/18 11:38:33;;;;;;;10.27;2.30;;;18.70;99.90;;;;;;4995379;28;20140;-75
2022/12/18 11:41:02;;;;;;;5.50;2.17;;;19.00;99.90;;;;;;4976439;28;20096;-74
2022/12/18 11:43:35;;;;;;;7.40;1.98;;;19.30;99.90;;;;;;4987593;28;20517;-73
2022/12/18 11:46:19;;;;;;;6.32;1.63;;;19.30;99.90;;;;;;4995297;28;20062;-73
2022/12/18 11:48:49;;;;;;;8.98;1.90;;;19.10;99.90;;;;;;4977434;28;20028;-73
2022/12/18 11:51:31;;;;;;;7.95;1.90;;;19.10;99.90;;;;;;4995337;28;20026;-74
2022/12/18 11:53:57;;;;;;;7.32;1.80;;;19.30;99.90;;;;;;4995388;28;20030;-74
2022/12/18 11:56:39;;;;;;;8.00;1.80;;;19.40;99.90;;;;;;4994790;28;20030;-73
2022/12/18 11:59:42;;;;;;;8.68;2.03;;;19.20;99.90;;;;;;4994710;28;20073;-74
2022/12/18 12:02:48;;;;;;;4.95;1.55;;;19.40;99.90;;;;;;4991888;28;20046;-73
2022/12/18 12:05:38;;;;;;;7.93;2.05;;;19.60;99.90;;;;;;4995168;28;20027;-72
2022/12/18 12:08:34;;;;;;;9.75;2.05;;;19.50;99.90;;;;;;4995236;28;20166;-72
2022/12/18 12:11:10;;;;;;;7.63;1.70;;;19.20;99.90;;;;;;4989292;28;20514;-74
2022/12/18 12:13:44;;;;;;;12.25;1.92;;;19.20;99.90;;;;;;4994549;28;20066;-73
2022/12/18 12:16:25;;;;;;;6.68;1.67;;;19.20;99.90;;;;;;4994131;28;20092;-73
2022/12/18 12:19:27;;;;;;;7.10;1.58;;;19.40;99.90;;;;;;4977147;28;20091;-73
2022/12/18 12:22:21;;;;;;;6.80;1.50;;;19.40;99.90;;;;;;4994782;28;20045;-73
2022/12/18 12:25:19;;;;;;;8.30;1.55;;;19.50;99.90;;;;;;4994702;28;20035;-73
2022/12/18 12:27:55;;;;;;;5.85;1.75;;;19.70;99.90;;;;;;4993470;28;20038;-74
2022/12/18 12:30:45;;;;;;;4.90;1.52;;;19.90;99.90;;;;;;4984611;28;20097;-73
2022/12/18 12:33:29;;;;;;;6.85;1.35;;;19.70;99.90;;;;;;4956492;28;20034;-74
2022/12/18 12:36:09;;;;;;;4.95;1.25;;;19.70;99.90;;;;;;4993779;28;20065;-72
2022/12/18 12:38:45;;;;;;;6.68;1.60;;;19.80;99.90;;;;;;4987334;28;20041;-73
2022/12/18 12:44:07;;;;;;;9.30;2.00;;;20.00;99.90;;;;;;4992204;28;20050;-74
2022/12/18 12:46:38;;;;;;;4.00;1.45;;;19.80;99.90;;;;;;4990179;28;20410;-73
2022/12/18 12:49:17;;;;;;;8.60;1.38;;;19.70;99.90;;;;;;4991548;28;20072;-73
2022/12/18 12:52:11;;;;;;;7.25;1.42;;;19.60;99.90;;;;;;4993804;28;20027;-73
2022/12/18 12:54:37;;;;;;;5.65;1.45;;;19.70;99.90;;;;;;4982097;28;20112;-68
2022/12/18 12:57:36;;;;;;;4.78;1.70;;;19.90;99.90;;;;;;4983174;28;20027;-73
2022/12/18 13:00:11;;;;;;;6.10;1.88;;;20.10;99.90;;;;;;4992235;28;20104;-72
2022/12/18 13:03:08;;;;;;;7.03;1.52;;;20.30;99.90;;;;;;4974793;28;20058;-73
2022/12/18 13:05:50;;;;;;;5.68;1.20;;;19.90;99.90;;;;;;4979170;28;20417;-72
2022/12/18 13:08:30;;;;;;;6.45;1.67;;;19.40;99.90;;;;;;4991682;28;20105;-74
2022/12/18 13:14:21;;;;;;;7.13;2.28;;;19.00;99.90;;;;;;4989182;28;20567;-72
2022/12/18 13:16:48;;;;;;;5.93;1.40;;;19.20;99.90;;;;;;4984880;28;20022;-73
2022/12/18 13:19:25;;;;;;;7.80;1.70;;;19.40;99.90;;;;;;4991372;28;20494;-73
2022/12/18 13:21:55;;;;;;;6.90;2.72;;;19.40;99.90;;;;;;4961590;28;20031;-73
2022/12/18 13:24:31;;;;;;;6.07;2.08;;;19.60;99.90;;;;;;4974220;28;20063;-74
2022/12/18 13:26:57;;;;;;;6.57;1.48;;;19.70;99.90;;;;;;4990906;28;20018;-74
2022/12/18 13:29:45;;;;;;;12.95;4.97;;;19.50;99.90;;;;;;4992905;28;20301;-73
2022/12/18 13:32:25;;;;;;;4.75;1.70;;;19.30;99.90;;;;;;4992000;28;20093;-74
2022/12/18 13:35:17;;;;;;;7.28;1.80;;;19.50;99.90;;;;;;4991457;28;20110;-73